sensor_id;sensor_type;location;lat;lon;timestamp;temperature;humidity
27890;DHT22;15238;49.082;9.102;2022-10-16T00:01:42;15.40;99.90
27890;DHT22;15238;49.082;9.102;2022-10-16T00:03:44;15.40;99.90
27890;DHT22;15238;49.082;9.102;2022-10-16T00:05:44;15.40;99.90
27890;DHT22;15238;49.082;9.102;2022-10-16T00:07:45;15.40;99.90
27890;DHT22;15238;49.082;9.102;2022-10-16T00:09:46;15.40;99.90
27890;DHT22;15238;49.082;9.102;2022-10-16T00:11:46;15.40;99.90
27890;DHT22;15238;49.082;9.102;2022-10-16T00:13:49;15.40;99.90
27890;DHT22;15238;49.082;9.102;2022-10-16T00:15:50;15.40;99.90
27890;DHT22;15238;49.082;9.102;2022-10-16T00:17:50;15.40;99.90
27890;DHT22;15238;49.082;9.102;2022-10-16T00:19:51;15.40;99.90
27890;DHT22;15238;49.082;9.102;2022-10-16T00:21:51;15.40;99.90
27890;DHT22;15238;49.082;9.102;2022-10-16T00:23:53;15.40;99.90
27890;DHT22;15238;49.082;9.102;2022-10-16T00:25:59;15.40;99.90
27890;DHT22;15238;49.082;9.102;2022-10-16T00:28:00;15.40;99.90
27890;DHT22;15238;49.082;9.102;2022-10-16T00:30:01;15.40;99.90
27890;DHT22;15238;49.082;9.102;2022-10-16T00:32:02;15.40;99.90
27890;DHT22;15238;49.082;9.102;2022-10-16T00:34:03;15.40;99.90
27890;DHT22;15238;49.082;9.102;2022-10-16T00:36:05;15.40;99.90
27890;DHT22;15238;49.082;9.102;2022-10-16T00:38:07;15.40;99.90
27890;DHT22;15238;49.082;9.102;2022-10-16T00:40:07;15.40;99.90
27890;DHT22;15238;49.082;9.102;2022-10-16T00:42:15;15.40;99.90
27890;DHT22;15238;49.082;9.102;2022-10-16T00:46:42;15.40;99.90
27890;DHT22;15238;49.082;9.102;2022-10-16T00:51:13;15.40;99.90
27890;DHT22;15238;49.082;9.102;2022-10-16T00:53:14;15.40;99.90
27890;DHT22;15238;49.082;9.102;2022-10-16T00:55:17;15.40;99.90
27890;DHT22;15238;49.082;9.102;2022-10-16T00:57:18;15.40;99.90
27890;DHT22;15238;49.082;9.102;2022-10-16T00:59:36;15.40;99.90
27890;DHT22;15238;49.082;9.102;2022-10-16T01:01:36;15.50;99.90
27890;DHT22;15238;49.082;9.102;2022-10-16T01:03:37;15.50;99.90
27890;DHT22;15238;49.082;9.102;2022-10-16T01:05:49;15.50;99.90
27890;DHT22;15238;49.082;9.102;2022-10-16T01:08:02;15.50;99.90
27890;DHT22;15238;49.082;9.102;2022-10-16T01:12:45;15.50;99.90
27890;DHT22;15238;49.082;9.102;2022-10-16T01:14:54;15.50;99.90
27890;DHT22;15238;49.082;9.102;2022-10-16T01:17:05;15.50;99.90
27890;DHT22;15238;49.082;9.102;2022-10-16T01:21:41;15.50;99.90
27890;DHT22;15238;49.082;9.102;2022-10-16T01:26:30;15.50;99.90
27890;DHT22;15238;49.082;9.102;2022-10-16T01:28:38;15.50;99.90
27890;DHT22;15238;49.082;9.102;2022-10-16T01:30:42;15.50;99.90
27890;DHT22;15238;49.082;9.102;2022-10-16T01:35:10;15.50;99.90
27890;DHT22;15238;49.082;9.102;2022-10-16T01:37:18;15.50;99.90
27890;DHT22;15238;49.082;9.102;2022-10-16T01:39:24;15.40;99.90
27890;DHT22;15238;49.082;9.102;2022-10-16T01:41:32;15.40;99.90
27890;DHT22;15238;49.082;9.102;2022-10-16T01:43:36;15.40;99.90
27890;DHT22;15238;49.082;9.102;2022-10-16T01:45:38;15.50;99.90
27890;DHT22;15238;49.082;9.102;2022-10-16T01:47:41;15.50;99.90
27890;DHT22;15238;49.082;9.102;2022-10-16T01:49:43;15.50;99.90
27890;DHT22;15238;49.082;9.102;2022-10-16T01:51:47;15.50;99.90
27890;DHT22;15238;49.082;9.102;2022-10-16T01:53:52;15.50;99.90
27890;DHT22;15238;49.082;9.102;2022-10-16T01:55:55;15.50;99.90
27890;DHT22;15238;49.082;9.102;2022-10-16T01:57:57;15.50;99.90
27890;DHT22;15238;49.082;9.102;2022-10-16T02:00:03;15.50;99.90
27890;DHT22;15238;49.082;9.102;2022-10-16T02:02:07;15.50;99.90
27890;DHT22;15238;49.082;9.102;2022-10-16T02:04:23;15.50;99.90
27890;DHT22;15238;49.082;9.102;2022-10-16T02:06:25;15.50;99.90
27890;DHT22;15238;49.082;9.102;2022-10-16T02:08:28;15.50;99.90
27890;DHT22;15238;49.082;9.102;2022-10-16T02:10:29;15.60;99.90
27890;DHT22;15238;49.082;9.102;2022-10-16T02:12:33;15.60;99.90
27890;DHT22;15238;49.082;9.102;2022-10-16T02:14:34;15.60;99.90
27890;DHT22;15238;49.082;9.102;2022-10-16T02:16:43;15.60;99.90
27890;DHT22;15238;49.082;9.102;2022-10-16T02:18:44;15.60;99.90
27890;DHT22;15238;49.082;9.102;2022-10-16T02:23:22;15.60;99.90
27890;DHT22;15238;49.082;9.102;2022-10-16T02:25:29;15.60;99.90
27890;DHT22;15238;49.082;9.102;2022-10-16T02:27:41;15.60;99.90
27890;DHT22;15238;49.082;9.102;2022-10-16T02:29:47;15.60;99.90
27890;DHT22;15238;49.082;9.102;2022-10-16T02:31:54;15.60;99.90
27890;DHT22;15238;49.082;9.102;2022-10-16T02:33:58;15.70;99.90
27890;DHT22;15238;49.082;9.102;2022-10-16T02:35:59;15.60;99.90
27890;DHT22;15238;49.082;9.102;2022-10-16T02:38:00;15.60;99.90
27890;DHT22;15238;49.082;9.102;2022-10-16T02:40:02;15.60;99.90
27890;DHT22;15238;49.082;9.102;2022-10-16T02:42:10;15.60;99.90
27890;DHT22;15238;49.082;9.102;2022-10-16T02:44:11;15.60;99.90
27890;DHT22;15238;49.082;9.102;2022-10-16T02:46:12;15.60;99.90
27890;DHT22;15238;49.082;9.102;2022-10-16T02:48:12;15.60;99.90
27890;DHT22;15238;49.082;9.102;2022-10-16T02:50:13;15.60;99.90
27890;DHT22;15238;49.082;9.102;2022-10-16T02:52:14;15.60;99.90
27890;DHT22;15238;49.082;9.102;2022-10-16T02:54:14;15.60;99.90
27890;DHT22;15238;49.082;9.102;2022-10-16T02:56:15;15.60;99.90
27890;DHT22;15238;49.082;9.102;2022-10-16T02:58:15;15.60;99.90
27890;DHT22;15238;49.082;9.102;2022-10-16T03:00:17;15.70;99.90
27890;DHT22;15238;49.082;9.102;2022-10-16T03:02:18;15.60;99.90
27890;DHT22;15238;49.082;9.102;2022-10-16T03:04:18;15.60;99.90
27890;DHT22;15238;49.082;9.102;2022-10-16T03:06:19;15.60;99.90
27890;DHT22;15238;49.082;9.102;2022-10-16T03:08:20;15.60;99.90
27890;DHT22;15238;49.082;9.102;2022-10-16T03:10:23;15.60;99.90
27890;DHT22;15238;49.082;9.102;2022-10-16T03:12:24;15.60;99.90
27890;DHT22;15238;49.082;9.102;2022-10-16T03:14:25;15.60;99.90
27890;DHT22;15238;49.082;9.102;2022-10-16T03:16:25;15.60;99.90
27890;DHT22;15238;49.082;9.102;2022-10-16T03:18:26;15.60;99.90
27890;DHT22;15238;49.082;9.102;2022-10-16T03:20:26;15.70;99.90
27890;DHT22;15238;49.082;9.102;2022-10-16T03:22:27;15.60;99.90
27890;DHT22;15238;49.082;9.102;2022-10-16T03:24:27;15.70;99.90
27890;DHT22;15238;49.082;9.102;2022-10-16T03:26:28;15.70;99.90
27890;DHT22;15238;49.082;9.102;2022-10-16T03:28:28;15.70;99.90
27890;DHT22;15238;49.082;9.102;2022-10-16T03:30:29;15.70;99.90
27890;DHT22;15238;49.082;9.102;2022-10-16T03:32:30;15.70;99.90
27890;DHT22;15238;49.082;9.102;2022-10-16T03:34:30;15.70;99.90
27890;DHT22;15238;49.082;9.102;2022-10-16T03:36:31;15.70;99.90
27890;DHT22;15238;49.082;9.102;2022-10-16T03:38:31;15.70;99.90
27890;DHT22;15238;49.082;9.102;2022-10-16T03:40:32;15.70;99.90
27890;DHT22;15238;49.082;9.102;2022-10-16T03:42:32;15.80;99.90
27890;DHT22;15238;49.082;9.102;2022-10-16T03:44:33;15.80;99.90
27890;DHT22;15238;49.082;9.102;2022-10-16T03:46:34;15.80;99.90
27890;DHT22;15238;49.082;9.102;2022-10-16T03:48:34;15.80;99.90
27890;DHT22;15238;49.082;9.102;2022-10-16T03:50:35;15.80;99.90
27890;DHT22;15238;49.082;9.102;2022-10-16T03:52:36;15.80;99.90
27890;DHT22;15238;49.082;9.102;2022-10-16T03:54:37;15.80;99.90
27890;DHT22;15238;49.082;9.102;2022-10-16T03:56:38;15.80;99.90
27890;DHT22;15238;49.082;9.102;2022-10-16T03:58:38;15.80;99.90
27890;DHT22;15238;49.082;9.102;2022-10-16T04:00:43;15.80;99.90
27890;DHT22;15238;49.082;9.102;2022-10-16T04:02:44;15.70;99.90
27890;DHT22;15238;49.082;9.102;2022-10-16T04:04:44;15.80;99.90
27890;DHT22;15238;49.082;9.102;2022-10-16T04:06:45;15.70;99.90
27890;DHT22;15238;49.082;9.102;2022-10-16T04:08:45;15.70;99.90
27890;DHT22;15238;49.082;9.102;2022-10-16T04:10:46;15.70;99.90
27890;DHT22;15238;49.082;9.102;2022-10-16T04:12:46;15.60;99.90
27890;DHT22;15238;49.082;9.102;2022-10-16T04:14:47;15.60;99.90
27890;DHT22;15238;49.082;9.102;2022-10-16T04:16:48;15.60;99.90
27890;DHT22;15238;49.082;9.102;2022-10-16T04:18:48;15.60;99.90
27890;DHT22;15238;49.082;9.102;2022-10-16T04:20:49;15.60;99.90
27890;DHT22;15238;49.082;9.102;2022-10-16T04:22:49;15.60;99.90
27890;DHT22;15238;49.082;9.102;2022-10-16T04:24:50;15.60;99.90
27890;DHT22;15238;49.082;9.102;2022-10-16T04:26:51;15.70;99.90
27890;DHT22;15238;49.082;9.102;2022-10-16T04:28:51;15.60;99.90
27890;DHT22;15238;49.082;9.102;2022-10-16T04:30:52;15.60;99.90
27890;DHT22;15238;49.082;9.102;2022-10-16T04:32:53;15.60;99.90
27890;DHT22;15238;49.082;9.102;2022-10-16T04:34:53;15.60;99.90
27890;DHT22;15238;49.082;9.102;2022-10-16T04:36:54;15.60;99.90
27890;DHT22;15238;49.082;9.102;2022-10-16T04:38:54;15.60;99.90
27890;DHT22;15238;49.082;9.102;2022-10-16T04:40:55;15.60;99.90
27890;DHT22;15238;49.082;9.102;2022-10-16T04:42:56;15.60;99.90
27890;DHT22;15238;49.082;9.102;2022-10-16T04:44:56;15.60;99.90
27890;DHT22;15238;49.082;9.102;2022-10-16T04:46:57;15.50;99.90
27890;DHT22;15238;49.082;9.102;2022-10-16T04:48:57;15.50;99.90
27890;DHT22;15238;49.082;9.102;2022-10-16T04:50:58;15.50;99.90
27890;DHT22;15238;49.082;9.102;2022-10-16T04:52:59;15.50;99.90
27890;DHT22;15238;49.082;9.102;2022-10-16T04:55:00;15.50;99.90
27890;DHT22;15238;49.082;9.102;2022-10-16T04:57:02;15.50;99.90
27890;DHT22;15238;49.082;9.102;2022-10-16T04:59:05;15.50;99.90
27890;DHT22;15238;49.082;9.102;2022-10-16T05:01:06;15.50;99.90
27890;DHT22;15238;49.082;9.102;2022-10-16T05:03:06;15.40;99.90
27890;DHT22;15238;49.082;9.102;2022-10-16T05:05:09;15.40;99.90
27890;DHT22;15238;49.082;9.102;2022-10-16T05:07:09;15.40;99.90
27890;DHT22;15238;49.082;9.102;2022-10-16T05:09:10;15.50;99.90
27890;DHT22;15238;49.082;9.102;2022-10-16T05:11:10;15.50;99.90
27890;DHT22;15238;49.082;9.102;2022-10-16T05:13:11;15.50;99.90
27890;DHT22;15238;49.082;9.102;2022-10-16T05:15:12;15.50;99.90
27890;DHT22;15238;49.082;9.102;2022-10-16T05:17:13;15.40;99.90
27890;DHT22;15238;49.082;9.102;2022-10-16T05:19:13;15.40;99.90
27890;DHT22;15238;49.082;9.102;2022-10-16T05:21:14;15.50;99.90
27890;DHT22;15238;49.082;9.102;2022-10-16T05:23:14;15.40;99.90
27890;DHT22;15238;49.082;9.102;2022-10-16T05:25:15;15.50;99.90
27890;DHT22;15238;49.082;9.102;2022-10-16T05:27:15;15.50;99.90
27890;DHT22;15238;49.082;9.102;2022-10-16T05:29:19;15.50;99.90
27890;DHT22;15238;49.082;9.102;2022-10-16T05:31:20;15.50;99.90
27890;DHT22;15238;49.082;9.102;2022-10-16T05:33:21;15.50;99.90
27890;DHT22;15238;49.082;9.102;2022-10-16T05:35:22;15.50;99.90
27890;DHT22;15238;49.082;9.102;2022-10-16T05:37:22;15.50;99.90
27890;DHT22;15238;49.082;9.102;2022-10-16T05:39:23;15.40;99.90
27890;DHT22;15238;49.082;9.102;2022-10-16T05:41:24;15.40;99.90
27890;DHT22;15238;49.082;9.102;2022-10-16T05:43:28;15.40;99.90
27890;DHT22;15238;49.082;9.102;2022-10-16T05:45:28;15.40;99.90
27890;DHT22;15238;49.082;9.102;2022-10-16T05:47:29;15.40;99.90
27890;DHT22;15238;49.082;9.102;2022-10-16T05:49:30;15.40;99.90
27890;DHT22;15238;49.082;9.102;2022-10-16T05:51:31;15.40;99.90
27890;DHT22;15238;49.082;9.102;2022-10-16T05:53:33;15.40;99.90
27890;DHT22;15238;49.082;9.102;2022-10-16T05:55:34;15.40;99.90
27890;DHT22;15238;49.082;9.102;2022-10-16T05:57:35;15.40;99.90
27890;DHT22;15238;49.082;9.102;2022-10-16T05:59:35;15.40;99.90
27890;DHT22;15238;49.082;9.102;2022-10-16T06:01:36;15.40;99.90
27890;DHT22;15238;49.082;9.102;2022-10-16T06:03:36;15.40;99.90
27890;DHT22;15238;49.082;9.102;2022-10-16T06:05:37;15.30;99.90
27890;DHT22;15238;49.082;9.102;2022-10-16T06:07:37;15.40;99.90
27890;DHT22;15238;49.082;9.102;2022-10-16T06:09:38;15.40;99.90
27890;DHT22;15238;49.082;9.102;2022-10-16T06:11:38;15.40;99.90
27890;DHT22;15238;49.082;9.102;2022-10-16T06:13:39;15.40;99.90
27890;DHT22;15238;49.082;9.102;2022-10-16T06:15:42;15.40;99.90
27890;DHT22;15238;49.082;9.102;2022-10-16T06:17:43;15.40;99.90
27890;DHT22;15238;49.082;9.102;2022-10-16T06:19:43;15.40;99.90
27890;DHT22;15238;49.082;9.102;2022-10-16T06:21:44;15.40;99.90
27890;DHT22;15238;49.082;9.102;2022-10-16T06:23:45;15.40;99.90
27890;DHT22;15238;49.082;9.102;2022-10-16T06:25:46;15.40;99.90
27890;DHT22;15238;49.082;9.102;2022-10-16T06:27:47;15.40;99.90
27890;DHT22;15238;49.082;9.102;2022-10-16T06:29:47;15.40;99.90
27890;DHT22;15238;49.082;9.102;2022-10-16T06:31:48;15.40;99.90
27890;DHT22;15238;49.082;9.102;2022-10-16T06:33:51;15.40;99.90
27890;DHT22;15238;49.082;9.102;2022-10-16T06:35:52;15.40;99.90
27890;DHT22;15238;49.082;9.102;2022-10-16T06:37:53;15.50;99.90
27890;DHT22;15238;49.082;9.102;2022-10-16T06:39:53;15.50;99.90
27890;DHT22;15238;49.082;9.102;2022-10-16T06:41:54;15.50;99.90
27890;DHT22;15238;49.082;9.102;2022-10-16T06:43:54;15.50;99.90
27890;DHT22;15238;49.082;9.102;2022-10-16T06:45:56;15.50;99.90
27890;DHT22;15238;49.082;9.102;2022-10-16T06:47:57;15.60;99.90
27890;DHT22;15238;49.082;9.102;2022-10-16T06:49:57;15.60;99.90
27890;DHT22;15238;49.082;9.102;2022-10-16T06:51:58;15.60;99.90
27890;DHT22;15238;49.082;9.102;2022-10-16T06:53:58;15.60;99.90
27890;DHT22;15238;49.082;9.102;2022-10-16T06:56:20;15.70;99.90
27890;DHT22;15238;49.082;9.102;2022-10-16T06:58:22;15.70;99.90
27890;DHT22;15238;49.082;9.102;2022-10-16T07:00:22;15.70;99.90
27890;DHT22;15238;49.082;9.102;2022-10-16T07:02:23;15.80;99.90
27890;DHT22;15238;49.082;9.102;2022-10-16T07:04:23;15.80;99.90
27890;DHT22;15238;49.082;9.102;2022-10-16T07:06:25;15.80;99.90
27890;DHT22;15238;49.082;9.102;2022-10-16T07:08:25;15.80;99.90
27890;DHT22;15238;49.082;9.102;2022-10-16T07:10:26;15.90;99.90
27890;DHT22;15238;49.082;9.102;2022-10-16T07:12:26;15.90;99.90
27890;DHT22;15238;49.082;9.102;2022-10-16T07:14:27;15.90;99.90
27890;DHT22;15238;49.082;9.102;2022-10-16T07:16:30;15.90;99.90
27890;DHT22;15238;49.082;9.102;2022-10-16T07:18:31;15.90;99.90
27890;DHT22;15238;49.082;9.102;2022-10-16T07:20:33;16.00;99.90
27890;DHT22;15238;49.082;9.102;2022-10-16T07:22:33;16.00;99.90
27890;DHT22;15238;49.082;9.102;2022-10-16T07:24:34;16.00;99.90
27890;DHT22;15238;49.082;9.102;2022-10-16T07:26:36;16.10;99.90
27890;DHT22;15238;49.082;9.102;2022-10-16T07:28:39;16.10;99.90
27890;DHT22;15238;49.082;9.102;2022-10-16T07:30:40;16.10;99.90
27890;DHT22;15238;49.082;9.102;2022-10-16T07:32:40;16.20;99.90
27890;DHT22;15238;49.082;9.102;2022-10-16T07:34:41;16.20;99.90
27890;DHT22;15238;49.082;9.102;2022-10-16T07:36:42;16.30;99.90
27890;DHT22;15238;49.082;9.102;2022-10-16T07:38:43;16.30;99.90
27890;DHT22;15238;49.082;9.102;2022-10-16T07:40:44;16.40;99.90
27890;DHT22;15238;49.082;9.102;2022-10-16T07:42:45;16.30;99.90
27890;DHT22;15238;49.082;9.102;2022-10-16T07:44:45;16.40;99.90
27890;DHT22;15238;49.082;9.102;2022-10-16T07:46:46;16.50;99.90
27890;DHT22;15238;49.082;9.102;2022-10-16T07:48:47;16.50;99.90
27890;DHT22;15238;49.082;9.102;2022-10-16T07:50:48;16.60;99.90
27890;DHT22;15238;49.082;9.102;2022-10-16T07:52:48;16.70;99.90
27890;DHT22;15238;49.082;9.102;2022-10-16T07:54:49;16.70;99.90
27890;DHT22;15238;49.082;9.102;2022-10-16T07:56:50;16.80;99.90
27890;DHT22;15238;49.082;9.102;2022-10-16T07:58:51;16.90;99.90
27890;DHT22;15238;49.082;9.102;2022-10-16T08:00:51;17.00;99.90
27890;DHT22;15238;49.082;9.102;2022-10-16T08:02:52;17.10;99.90
27890;DHT22;15238;49.082;9.102;2022-10-16T08:04:52;17.10;99.90
27890;DHT22;15238;49.082;9.102;2022-10-16T08:06:53;17.20;99.90
27890;DHT22;15238;49.082;9.102;2022-10-16T08:08:55;17.30;99.90
27890;DHT22;15238;49.082;9.102;2022-10-16T08:10:56;17.30;99.90
27890;DHT22;15238;49.082;9.102;2022-10-16T08:12:57;17.40;99.90
27890;DHT22;15238;49.082;9.102;2022-10-16T08:14:58;17.50;99.90
27890;DHT22;15238;49.082;9.102;2022-10-16T08:16:58;17.50;99.90
27890;DHT22;15238;49.082;9.102;2022-10-16T08:18:59;17.70;99.90
27890;DHT22;15238;49.082;9.102;2022-10-16T08:20:59;17.80;99.90
27890;DHT22;15238;49.082;9.102;2022-10-16T08:23:00;17.90;99.90
27890;DHT22;15238;49.082;9.102;2022-10-16T08:25:01;18.00;99.90
27890;DHT22;15238;49.082;9.102;2022-10-16T08:27:01;18.10;99.90
27890;DHT22;15238;49.082;9.102;2022-10-16T08:29:02;18.10;99.90
27890;DHT22;15238;49.082;9.102;2022-10-16T08:33:07;18.30;99.90
27890;DHT22;15238;49.082;9.102;2022-10-16T08:35:11;18.40;99.90
27890;DHT22;15238;49.082;9.102;2022-10-16T08:37:12;18.40;99.90
27890;DHT22;15238;49.082;9.102;2022-10-16T08:39:14;18.50;99.90
27890;DHT22;15238;49.082;9.102;2022-10-16T08:41:41;18.50;99.90
27890;DHT22;15238;49.082;9.102;2022-10-16T08:48:46;18.60;99.90
27890;DHT22;15238;49.082;9.102;2022-10-16T08:50:48;18.80;99.90
27890;DHT22;15238;49.082;9.102;2022-10-16T08:52:49;18.70;99.90
27890;DHT22;15238;49.082;9.102;2022-10-16T08:54:56;18.70;99.90
27890;DHT22;15238;49.082;9.102;2022-10-16T08:57:17;18.70;99.90
27890;DHT22;15238;49.082;9.102;2022-10-16T08:59:19;18.80;99.90
27890;DHT22;15238;49.082;9.102;2022-10-16T09:01:22;18.80;99.90
27890;DHT22;15238;49.082;9.102;2022-10-16T09:10:49;18.80;99.90
27890;DHT22;15238;49.082;9.102;2022-10-16T09:13:11;18.80;99.90
27890;DHT22;15238;49.082;9.102;2022-10-16T09:15:21;18.80;99.90
27890;DHT22;15238;49.082;9.102;2022-10-16T09:17:49;18.80;99.90
27890;DHT22;15238;49.082;9.102;2022-10-16T09:19:56;18.80;99.90
27890;DHT22;15238;49.082;9.102;2022-10-16T09:21:59;18.90;99.90
27890;DHT22;15238;49.082;9.102;2022-10-16T09:24:20;18.90;99.90
27890;DHT22;15238;49.082;9.102;2022-10-16T09:26:21;18.90;99.90
27890;DHT22;15238;49.082;9.102;2022-10-16T09:28:22;18.90;99.90
27890;DHT22;15238;49.082;9.102;2022-10-16T09:30:26;19.00;99.90
27890;DHT22;15238;49.082;9.102;2022-10-16T09:32:28;19.10;99.90
27890;DHT22;15238;49.082;9.102;2022-10-16T09:34:32;19.20;99.90
27890;DHT22;15238;49.082;9.102;2022-10-16T09:36:43;19.30;99.90
27890;DHT22;15238;49.082;9.102;2022-10-16T09:38:45;19.60;99.90
27890;DHT22;15238;49.082;9.102;2022-10-16T09:40:45;19.80;99.90
27890;DHT22;15238;49.082;9.102;2022-10-16T09:42:46;20.00;99.90
27890;DHT22;15238;49.082;9.102;2022-10-16T09:44:51;20.00;99.90
27890;DHT22;15238;49.082;9.102;2022-10-16T09:47:06;20.20;99.90
27890;DHT22;15238;49.082;9.102;2022-10-16T09:49:22;20.20;99.90
27890;DHT22;15238;49.082;9.102;2022-10-16T09:53:42;20.50;99.90
27890;DHT22;15238;49.082;9.102;2022-10-16T09:55:50;20.60;99.90
27890;DHT22;15238;49.082;9.102;2022-10-16T09:57:53;20.60;99.90
27890;DHT22;15238;49.082;9.102;2022-10-16T09:59:56;20.70;99.90
27890;DHT22;15238;49.082;9.102;2022-10-16T10:02:00;20.80;99.90
27890;DHT22;15238;49.082;9.102;2022-10-16T10:04:04;20.90;99.90
27890;DHT22;15238;49.082;9.102;2022-10-16T10:06:15;21.00;99.90
27890;DHT22;15238;49.082;9.102;2022-10-16T10:08:18;21.00;99.90
27890;DHT22;15238;49.082;9.102;2022-10-16T10:10:30;21.00;99.90
27890;DHT22;15238;49.082;9.102;2022-10-16T10:12:32;21.00;99.90
27890;DHT22;15238;49.082;9.102;2022-10-16T10:14:47;20.90;99.90
27890;DHT22;15238;49.082;9.102;2022-10-16T10:16:48;20.80;99.90
27890;DHT22;15238;49.082;9.102;2022-10-16T10:18:58;20.80;99.90
27890;DHT22;15238;49.082;9.102;2022-10-16T10:21:00;20.80;99.90
27890;DHT22;15238;49.082;9.102;2022-10-16T10:23:22;20.70;99.90
27890;DHT22;15238;49.082;9.102;2022-10-16T10:27:36;20.80;99.90
27890;DHT22;15238;49.082;9.102;2022-10-16T10:29:58;20.90;99.90
27890;DHT22;15238;49.082;9.102;2022-10-16T10:32:36;20.90;99.90
27890;DHT22;15238;49.082;9.102;2022-10-16T10:34:56;21.00;99.90
27890;DHT22;15238;49.082;9.102;2022-10-16T10:39:32;21.00;99.90
27890;DHT22;15238;49.082;9.102;2022-10-16T10:44:22;20.90;99.90
27890;DHT22;15238;49.082;9.102;2022-10-16T10:49:15;21.00;99.90
27890;DHT22;15238;49.082;9.102;2022-10-16T10:51:28;21.00;99.90
27890;DHT22;15238;49.082;9.102;2022-10-16T11:01:06;21.30;99.90
27890;DHT22;15238;49.082;9.102;2022-10-16T11:03:43;21.20;99.90
27890;DHT22;15238;49.082;9.102;2022-10-16T11:05:52;21.20;99.90
27890;DHT22;15238;49.082;9.102;2022-10-16T11:08:00;21.20;99.90
27890;DHT22;15238;49.082;9.102;2022-10-16T11:10:13;21.20;99.90
27890;DHT22;15238;49.082;9.102;2022-10-16T11:12:33;21.30;99.90
27890;DHT22;15238;49.082;9.102;2022-10-16T11:14:38;21.50;99.90
27890;DHT22;15238;49.082;9.102;2022-10-16T11:16:49;21.60;99.90
27890;DHT22;15238;49.082;9.102;2022-10-16T11:19:11;21.80;99.90
27890;DHT22;15238;49.082;9.102;2022-10-16T11:21:16;21.90;99.90
27890;DHT22;15238;49.082;9.102;2022-10-16T11:23:26;22.00;99.90
27890;DHT22;15238;49.082;9.102;2022-10-16T11:25:30;22.10;99.90
27890;DHT22;15238;49.082;9.102;2022-10-16T11:27:36;22.20;99.90
27890;DHT22;15238;49.082;9.102;2022-10-16T11:29:49;22.20;99.90
27890;DHT22;15238;49.082;9.102;2022-10-16T11:31:57;22.30;99.90
27890;DHT22;15238;49.082;9.102;2022-10-16T11:36:25;22.30;99.90
27890;DHT22;15238;49.082;9.102;2022-10-16T11:38:41;22.10;99.90
27890;DHT22;15238;49.082;9.102;2022-10-16T11:40:47;22.00;99.90
27890;DHT22;15238;49.082;9.102;2022-10-16T11:42:59;21.90;99.90
27890;DHT22;15238;49.082;9.102;2022-10-16T11:45:38;21.80;99.90
27890;DHT22;15238;49.082;9.102;2022-10-16T11:47:44;21.80;99.90
27890;DHT22;15238;49.082;9.102;2022-10-16T11:49:46;21.70;99.90
27890;DHT22;15238;49.082;9.102;2022-10-16T11:52:01;21.60;99.90
27890;DHT22;15238;49.082;9.102;2022-10-16T11:54:33;21.60;99.90
27890;DHT22;15238;49.082;9.102;2022-10-16T11:56:38;21.60;99.90
27890;DHT22;15238;49.082;9.102;2022-10-16T11:59:00;21.70;99.90
27890;DHT22;15238;49.082;9.102;2022-10-16T12:03:27;22.10;99.90
27890;DHT22;15238;49.082;9.102;2022-10-16T12:05:30;22.30;99.90
27890;DHT22;15238;49.082;9.102;2022-10-16T12:07:37;22.40;99.90
27890;DHT22;15238;49.082;9.102;2022-10-16T12:09:40;22.60;99.90
27890;DHT22;15238;49.082;9.102;2022-10-16T12:11:41;22.70;99.90
27890;DHT22;15238;49.082;9.102;2022-10-16T12:13:42;22.80;99.90
27890;DHT22;15238;49.082;9.102;2022-10-16T12:15:43;22.90;99.90
27890;DHT22;15238;49.082;9.102;2022-10-16T12:17:43;23.00;99.90
27890;DHT22;15238;49.082;9.102;2022-10-16T12:19:44;23.10;99.90
27890;DHT22;15238;49.082;9.102;2022-10-16T12:21:45;23.10;99.90
27890;DHT22;15238;49.082;9.102;2022-10-16T12:23:49;23.10;99.90
27890;DHT22;15238;49.082;9.102;2022-10-16T12:25:55;23.00;99.90
27890;DHT22;15238;49.082;9.102;2022-10-16T12:28:04;23.10;99.90
27890;DHT22;15238;49.082;9.102;2022-10-16T12:30:05;23.10;99.90
27890;DHT22;15238;49.082;9.102;2022-10-16T12:32:27;23.20;99.90
27890;DHT22;15238;49.082;9.102;2022-10-16T12:34:52;23.00;99.90
27890;DHT22;15238;49.082;9.102;2022-10-16T12:36:53;23.00;99.90
27890;DHT22;15238;49.082;9.102;2022-10-16T12:38:55;23.10;99.90
27890;DHT22;15238;49.082;9.102;2022-10-16T12:41:06;23.00;99.90
27890;DHT22;15238;49.082;9.102;2022-10-16T12:45:33;22.90;99.90
27890;DHT22;15238;49.082;9.102;2022-10-16T12:49:37;22.70;99.90
27890;DHT22;15238;49.082;9.102;2022-10-16T12:51:40;22.60;99.90
27890;DHT22;15238;49.082;9.102;2022-10-16T12:53:41;22.60;99.90
27890;DHT22;15238;49.082;9.102;2022-10-16T12:56:14;22.60;99.90
27890;DHT22;15238;49.082;9.102;2022-10-16T12:58:25;22.70;99.90
27890;DHT22;15238;49.082;9.102;2022-10-16T13:00:57;22.80;99.90
27890;DHT22;15238;49.082;9.102;2022-10-16T13:12:25;22.60;99.90
27890;DHT22;15238;49.082;9.102;2022-10-16T13:14:54;22.50;99.90
27890;DHT22;15238;49.082;9.102;2022-10-16T13:21:51;22.60;99.90
27890;DHT22;15238;49.082;9.102;2022-10-16T13:26:38;22.60;99.90
27890;DHT22;15238;49.082;9.102;2022-10-16T13:28:35;22.60;99.90
27890;DHT22;15238;49.082;9.102;2022-10-16T13:30:51;22.50;99.90
27890;DHT22;15238;49.082;9.102;2022-10-16T13:33:02;22.50;99.90
27890;DHT22;15238;49.082;9.102;2022-10-16T13:35:25;22.50;99.90
27890;DHT22;15238;49.082;9.102;2022-10-16T13:37:26;22.40;99.90
27890;DHT22;15238;49.082;9.102;2022-10-16T13:39:30;22.40;99.90
27890;DHT22;15238;49.082;9.102;2022-10-16T13:41:30;22.40;99.90
27890;DHT22;15238;49.082;9.102;2022-10-16T13:43:37;22.30;99.90
27890;DHT22;15238;49.082;9.102;2022-10-16T13:45:38;22.30;99.90
27890;DHT22;15238;49.082;9.102;2022-10-16T13:47:38;22.30;99.90
27890;DHT22;15238;49.082;9.102;2022-10-16T13:49:39;22.30;99.90
27890;DHT22;15238;49.082;9.102;2022-10-16T13:51:39;22.30;99.90
27890;DHT22;15238;49.082;9.102;2022-10-16T13:53:41;22.20;99.90
27890;DHT22;15238;49.082;9.102;2022-10-16T13:55:42;22.20;99.90
27890;DHT22;15238;49.082;9.102;2022-10-16T13:57:43;22.10;99.90
27890;DHT22;15238;49.082;9.102;2022-10-16T13:59:44;22.00;99.90
27890;DHT22;15238;49.082;9.102;2022-10-16T14:01:44;22.00;99.90
27890;DHT22;15238;49.082;9.102;2022-10-16T14:03:46;22.00;99.90
27890;DHT22;15238;49.082;9.102;2022-10-16T14:05:49;22.20;99.90
27890;DHT22;15238;49.082;9.102;2022-10-16T14:07:52;22.20;99.90
27890;DHT22;15238;49.082;9.102;2022-10-16T14:09:55;22.40;99.90
27890;DHT22;15238;49.082;9.102;2022-10-16T14:12:02;22.50;99.90
27890;DHT22;15238;49.082;9.102;2022-10-16T14:14:03;22.50;99.90
27890;DHT22;15238;49.082;9.102;2022-10-16T14:16:10;22.50;99.90
27890;DHT22;15238;49.082;9.102;2022-10-16T14:18:20;22.50;99.90
27890;DHT22;15238;49.082;9.102;2022-10-16T14:20:26;22.40;99.90
27890;DHT22;15238;49.082;9.102;2022-10-16T14:22:33;22.40;99.90